Terminal Aerodrome Forecast
Issued by NWS Charleston, WV

Current Version | Previous Version | Graphics & Text | Print | Product List | Glossary On
Versions: 1 2 3 4 5 6 7 8 9 10 11 12 13 14 15 16 17 18 19 20 21 22
000
FTUS41 KRLX 232343
TAFHTS
TAF
KHTS 232343Z 2400/2424 21005KT P6SM -SHRA SCT025 OVC040
     FM240200 22010KT P6SM OVC025
     FM240800 21007KT P6SM BKN030
     FM241400 21009KT P6SM BKN035
     FM241800 23010KT P6SM BKN040
     FM242300 23008KT P6SM SCT050=

USA.gov is the U.S. government's official web portal to all federal, state and local government web resources and services.